| time (UTC) | temp F | wind direction | speed MPH | gust MPH | rain 1hr in | rain 24hr in | rain mn in | humidity % | barometer mb |
| 20260508155548 | 46 | 0 | 0.0 | 0.0 | 0.02 | 0.02 | 0.02 | 79 | 1012.5 |
| 20260508155544 | 45 | 275 | 0.0 | 0.0 | 0.02 | 0.02 | 0.02 | 79 | 1012.5 |
| 20260508155153 | 46 | 16 | 0.0 | 0.0 | 0.01 | 0.01 | 0.01 | 69 | 1012.5 |
| 20260508154042 | 47 | 337 | 0.0 | 0.0 | 0.01 | 0.01 | 0.01 | 69 | 1012.6 |
| 20260508153546 | 49 | 306 | 0.0 | 0.0 | 0.00 | 0.00 | 0.00 | 63 | 1012.3 |
| 20260508153542 | 48 | 283 | 0.0 | 0.0 | 0.01 | 0.01 | 0.01 | 69 | 1012.5 |
| 20260508152549 | 51 | 320 | 0.0 | 0.0 | 0.00 | 0.00 | 0.00 | 52 | 1011.6 |
| 20260508152542 | 50 | 240 | 0.0 | 1.0 | 0.00 | 0.00 | 0.00 | 61 | 1012.1 |
| 20260508152042 | 51 | 306 | 0.0 | 1.0 | 0.00 | 0.00 | 0.00 | 59 | 1011.9 |
| 20260508151542 | 51 | 257 | 0.0 | 0.0 | 0.00 | 0.00 | 0.00 | 55 | 1011.7 |
| 20260508150545 | 51 | 351 | 0.0 | 0.0 | 0.00 | 0.00 | 0.00 | 50 | 1011.3 |
| 20260508150541 | 51 | 320 | 0.0 | 0.0 | 0.00 | 0.00 | 0.00 | 52 | 1011.5 |
| 20260508145540 | 52 | 262 | 0.0 | 0.0 | 0.00 | 0.00 | 0.00 | 50 | 1011.5 |
| 20260508145047 | 52 | 264 | 0.0 | 0.0 | 0.00 | 0.00 | 0.00 | 50 | 1011.5 |
| 20260508145042 | 52 | 247 | 0.0 | 0.0 | 0.00 | 0.00 | 0.00 | 50 | 1011.3 |
| 20260508144039 | 52 | 23 | 0.0 | 0.0 | 0.00 | 0.00 | 0.00 | 50 | 1011.3 |
| 20260508143541 | 52 | 326 | 0.0 | 0.0 | 0.00 | 0.00 | 0.00 | 51 | 1011.5 |
| 20260508143041 | 52 | 337 | 0.0 | 0.0 | 0.00 | 0.00 | 0.00 | 48 | 1011.3 |
| 20260508142541 | 52 | 1 | 0.0 | 0.0 | 0.00 | 0.00 | 0.00 | 54 | 1011.3 |
| 20260508142040 | 52 | 300 | 0.0 | 0.0 | 0.00 | 0.00 | 0.00 | 54 | 1011.5 |
| 20260508141540 | 52 | 300 | 0.0 | 0.0 | 0.00 | 0.00 | 0.00 | 54 | 1011.5 |
| 20260508141038 | 52 | 337 | 0.0 | 0.0 | 0.00 | 0.00 | 0.00 | 52 | 1011.6 |
| 20260508140539 | 51 | 116 | 0.0 | 0.0 | 0.00 | 0.00 | 0.00 | 51 | 1011.7 |
| 20260508140039 | 52 | 227 | 0.0 | 0.0 | 0.00 | 0.00 | 0.00 | 52 | 1011.8 |
| 20260508135537 | 51 | 0 | 0.0 | 0.0 | 0.00 | 0.00 | 0.00 | 51 | 1011.8 |
| 20260508135039 | 52 | 244 | 0.0 | 0.0 | 0.00 | 0.00 | 0.00 | 51 | 1011.8 |
| 20260508134537 | 51 | 243 | 0.0 | 0.0 | 0.00 | 0.00 | 0.00 | 51 | 1011.7 |
| 20260508134041 | 51 | 282 | 0.0 | 0.0 | 0.00 | 0.00 | 0.00 | 54 | 1011.8 |
| 20260508134037 | 51 | 292 | 0.0 | 0.0 | 0.00 | 0.00 | 0.00 | 52 | 1011.8 |
| 20260508133650 | 51 | 343 | 0.0 | 0.0 | 0.00 | 0.00 | 0.00 | 53 | 1011.9 |
| 20260508132536 | 51 | 262 | 0.0 | 0.0 | 0.00 | 0.00 | 0.00 | 53 | 1012.0 |
| 20260508132041 | 52 | 224 | 0.0 | 0.0 | 0.00 | 0.00 | 0.00 | 57 | 1011.8 |
| 20260508132037 | 51 | 269 | 0.0 | 0.0 | 0.00 | 0.00 | 0.00 | 55 | 1011.8 |
| 20260508131655 | 50 | 89 | 0.0 | 0.0 | 0.00 | 0.00 | 0.00 | 59 | 1011.6 |
| 20260508131036 | 51 | 337 | 0.0 | 0.0 | 0.00 | 0.00 | 0.00 | 59 | 1011.7 |
| 20260508130037 | 50 | 31 | 0.0 | 0.0 | 0.00 | 0.00 | 0.00 | 58 | 1011.6 |
| 20260508125537 | 50 | 329 | 0.0 | 0.0 | 0.00 | 0.00 | 0.00 | 58 | 1011.8 |
| 20260508125036 | 50 | 348 | 0.0 | 0.0 | 0.00 | 0.00 | 0.00 | 60 | 1011.8 |
| 20260508124535 | 49 | 279 | 0.0 | 0.0 | 0.00 | 0.00 | 0.00 | 60 | 1011.9 |
| 20260508124042 | 49 | 259 | 0.0 | 0.0 | 0.00 | 0.00 | 0.00 | 60 | 1011.8 |
| 20260508123535 | 49 | 338 | 0.0 | 0.0 | 0.00 | 0.00 | 0.00 | 62 | 1012.0 |
| 20260508123035 | 49 | 240 | 0.0 | 0.0 | 0.00 | 0.00 | 0.00 | 63 | 1012.1 |
| 20260508122539 | 0 | 220 | 0.0 | 0.0 | 0.00 | 0.00 | 0.00 | 1012.1 | |
| 20260508122535 | 49 | 295 | 0.0 | 0.0 | 0.00 | 0.00 | 0.00 | 65 | 1012.0 |
| 20260508121534 | 48 | 45 | 0.0 | 0.0 | 0.00 | 0.00 | 0.00 | 75 | 1012.1 |
| 20260508121033 | 48 | 45 | 0.0 | 0.0 | 0.00 | 0.00 | 0.00 | 75 | 1012.0 |
| 20260508120533 | 47 | 6 | 0.0 | 0.0 | 0.00 | 0.00 | 0.00 | 75 | 1012.0 |
| 20260508120140 | 46 | 295 | 0.0 | 0.0 | 0.00 | 0.00 | 0.00 | 75 | 1011.9 |
| 20260508120037 | 47 | 182 | 0.0 | 0.0 | 0.00 | 0.00 | 0.00 | 75 | 1012.0 |
| 20260508120033 | 47 | 182 | 0.0 | 0.0 | 0.00 | 0.00 | 0.00 | 75 | 1012.0 |
| 20260508114532 | 46 | 337 | 0.0 | 0.0 | 0.00 | 0.00 | 0.00 | 77 | 1012.0 |
| 20260508114036 | 45 | 238 | 0.0 | 0.0 | 0.00 | 0.00 | 0.00 | 81 | 1012.3 |
| 20260508114032 | 45 | 31 | 0.0 | 0.0 | 0.00 | 0.00 | 0.00 | 81 | 1012.1 |
| 20260508113032 | 44 | 264 | 0.0 | 0.0 | 0.00 | 0.00 | 0.00 | 83 | 1012.3 |
| 20260508112531 | 44 | 247 | 0.0 | 0.0 | 0.00 | 0.00 | 0.00 | 86 | 1012.3 |
| 20260508112030 | 43 | 248 | 0.0 | 0.0 | 0.00 | 0.00 | 0.00 | 86 | 1012.3 |
| 20260508111530 | 42 | 219 | 0.0 | 0.0 | 0.00 | 0.00 | 0.00 | 89 | 1012.2 |
| 20260508111032 | 0 | 230 | 0.0 | 0.0 | 0.00 | 0.00 | 0.00 | 1012.2 | |
| 20260508110529 | 0 | 230 | 0.0 | 0.0 | 0.00 | 0.00 | 0.00 | 1012.2 | |
| 20260508110032 | 39 | 274 | 0.0 | 0.0 | 0.00 | 0.00 | 0.00 | 89 | 1012.1 |
| 20260508110028 | 39 | 274 | 0.0 | 0.0 | 0.00 | 0.00 | 0.00 | 89 | 1012.2 |
| 20260508105029 | 38 | 265 | 0.0 | 0.0 | 0.00 | 0.00 | 0.00 | 88 | 1012.0 |
| 20260508104528 | 38 | 265 | 0.0 | 0.0 | 0.00 | 0.00 | 0.00 | 88 | 1012.0 |
| 20260508104028 | 38 | 265 | 0.0 | 0.0 | 0.00 | 0.52 | 0.00 | 88 | 1012.1 |
| 20260508103530 | 0 | 0.0 | 0.0 | 0.00 | 0.52 | 0.00 | 1011.9 | ||
| 20260508103526 | 0 | 0.0 | 0.0 | 0.00 | 0.52 | 0.00 | 1012.0 | ||
| 20260508102524 | 0 | 0.0 | 0.0 | 0.00 | 0.52 | 0.00 | 1011.9 | ||
| 20260508102025 | 38 | 274 | 0.0 | 0.0 | 0.00 | 0.52 | 0.00 | 87 | 1011.9 |
| 20260508101528 | 0 | 274 | 0.0 | 0.0 | 0.00 | 0.52 | 0.00 | 1011.9 | |
| 20260508101524 | 38 | 274 | 0.0 | 0.0 | 0.00 | 0.52 | 0.00 | 87 | 1011.8 |
| 20260508100528 | 38 | 261 | 0.0 | 0.0 | 0.00 | 0.52 | 0.00 | 87 | 1011.7 |
| 20260508100524 | 38 | 261 | 0.0 | 0.0 | 0.00 | 0.52 | 0.00 | 87 | 1011.8 |
| 20260508095523 | 38 | 259 | 0.0 | 0.0 | 0.00 | 0.52 | 0.00 | 87 | 1011.7 |
| 20260508095028 | 38 | 259 | 0.0 | 0.0 | 0.00 | 0.52 | 0.00 | 85 | 1011.7 |
| 20260508095023 | 38 | 259 | 0.0 | 0.0 | 0.00 | 0.52 | 0.00 | 85 | 1011.7 |
| 20260508094522 | 38 | 259 | 0.0 | 0.0 | 0.00 | 0.52 | 0.00 | 85 | 1011.7 |
| 20260508093520 | 38 | 259 | 0.0 | 0.0 | 0.00 | 0.52 | 0.00 | 85 | 1011.7 |
| 20260508093020 | 38 | 264 | 0.0 | 0.0 | 0.00 | 0.52 | 0.00 | 85 | 1011.7 |
| 20260508092524 | 38 | 255 | 0.0 | 0.0 | 0.00 | 0.52 | 0.00 | 85 | 1011.7 |
| 20260508092019 | 38 | 255 | 0.0 | 0.0 | 0.00 | 0.52 | 0.00 | 85 | 1011.6 |
| 20260508091518 | 0 | 255 | 0.0 | 0.0 | 0.00 | 0.52 | 0.00 | 1011.6 | |
| 20260508091017 | 38 | 255 | 0.0 | 0.0 | 0.00 | 0.52 | 0.00 | 85 | 1011.6 |
| 20260508090517 | 38 | 255 | 0.0 | 0.0 | 0.00 | 0.52 | 0.00 | 85 | 1011.5 |
| 20260508090018 | 0 | 255 | 0.0 | 0.0 | 0.00 | 0.52 | 0.00 | 1011.3 | |
| 20260508085516 | 0 | 333 | 20.0 | 81.0 | 0.00 | 0.52 | 0.00 | 1011.3 | |
| 20260508085015 | 39 | 333 | 20.0 | 81.0 | 0.00 | 0.52 | 0.00 | 81 | 1011.2 |
| 20260508084515 | 39 | 220 | 0.0 | 0.0 | 0.00 | 0.52 | 0.00 | 81 | 1011.1 |
| 20260508084015 | 39 | 259 | 0.0 | 0.0 | 0.00 | 0.52 | 0.00 | 81 | 1011.2 |
| 20260508083515 | 40 | 259 | 0.0 | 0.0 | 0.00 | 0.52 | 0.00 | 81 | 1011.3 |
| 20260508083015 | 40 | 255 | 0.0 | 0.0 | 0.00 | 0.52 | 0.00 | 79 | 1011.3 |
| 20260508082515 | 0 | 0.0 | 0.0 | 0.00 | 0.52 | 0.00 | 1011.3 | ||
| 20260508082015 | 40 | 330 | 0.0 | 0.0 | 0.00 | 0.52 | 0.00 | 79 | 1011.3 |
| 20260508081513 | 40 | 330 | 0.0 | 0.0 | 0.00 | 0.52 | 0.00 | 79 | 1011.3 |
| 20260508081012 | 0 | 16 | 0.0 | 0.0 | 0.00 | 0.52 | 0.00 | 1011.2 | |
| 20260508080513 | 41 | 16 | 0.0 | 0.0 | 0.00 | 0.52 | 0.00 | 76 | 1011.1 |
| 20260508080011 | 41 | 16 | 0.0 | 0.0 | 0.00 | 0.52 | 0.00 | 76 | 1011.0 |
| 20260508075511 | 41 | 16 | 0.0 | 0.0 | 0.00 | 0.52 | 0.00 | 74 | 1011.0 |
| 20260508075011 | 41 | 16 | 0.0 | 0.0 | 0.00 | 0.52 | 0.00 | 74 | 1011.0 |
| 20260508074511 | 42 | 16 | 0.0 | 0.0 | 0.00 | 0.52 | 0.00 | 74 | 1011.0 |
| 20260508074015 | 42 | 16 | 0.0 | 0.0 | 0.00 | 0.52 | 0.00 | 73 | 1011.1 |
| 20260508074011 | 42 | 16 | 0.0 | 0.0 | 0.00 | 0.52 | 0.00 | 74 | 1011.0 |
| 20260508073010 | 0 | 59 | 0.0 | 0.0 | 0.00 | 0.52 | 0.00 | 1010.9 | |
| 20260508072510 | 43 | 59 | 0.0 | 0.0 | 0.00 | 0.52 | 0.00 | 69 | 1010.9 |
| 20260508072009 | 43 | 59 | 0.0 | 0.0 | 0.00 | 0.52 | 0.00 | 69 | 1011.0 |
| 20260508071509 | 44 | 59 | 0.0 | 0.0 | 0.00 | 0.52 | 0.00 | 68 | 1011.0 |
| 20260508071008 | 44 | 59 | 0.0 | 0.0 | 0.00 | 0.52 | 0.00 | 65 | 1011.0 |
| 20260508070509 | 45 | 73 | 0.0 | 0.0 | 0.00 | 0.52 | 0.00 | 65 | 1010.8 |
| 20260508070008 | 45 | 73 | 0.0 | 0.0 | 0.00 | 0.52 | 0.00 | 65 | 1010.9 |
| 20260508065508 | 46 | 73 | 0.0 | 0.0 | 0.00 | 0.52 | 0.00 | 65 | 1010.8 |
| 20260508065008 | 46 | 230 | 0.0 | 0.0 | 0.00 | 0.52 | 0.00 | 64 | 1010.9 |
| 20260508064507 | 46 | 230 | 0.0 | 0.0 | 0.00 | 0.52 | 0.00 | 64 | 1011.0 |
| 20260508064006 | 46 | 341 | 0.0 | 0.0 | 0.00 | 0.52 | 0.00 | 63 | 1011.0 |
| 20260508063507 | 46 | 337 | 0.0 | 0.0 | 0.00 | 0.52 | 0.00 | 62 | 1011.1 |
| 20260508063006 | 46 | 37 | 0.0 | 0.0 | 0.00 | 0.52 | 0.00 | 62 | 1011.1 |
| 20260508062507 | 47 | 330 | 0.0 | 0.0 | 0.00 | 0.52 | 0.00 | 62 | 1011.1 |
| 20260508062011 | 47 | 286 | 0.0 | 0.0 | 0.00 | 0.52 | 0.00 | 62 | 1011.1 |
| 20260508062006 | 47 | 347 | 0.0 | 0.0 | 0.00 | 0.52 | 0.00 | 62 | 1011.1 |
| 20260508061008 | 47 | 300 | 0.0 | 0.0 | 0.00 | 0.52 | 0.00 | 62 | 1011.0 |
| 20260508061004 | 47 | 286 | 0.0 | 0.0 | 0.00 | 0.52 | 0.00 | 62 | 1011.1 |
| 20260508060003 | 47 | 298 | 0.0 | 0.0 | 0.00 | 0.52 | 0.00 | 62 | 1010.9 |
| 20260508055504 | 47 | 283 | 0.0 | 0.0 | 0.00 | 0.52 | 0.00 | 73 | 1010.9 |
| 20260508055008 | 47 | 295 | 0.0 | 0.0 | 0.00 | 0.52 | 0.00 | 73 | 1010.8 |
| 20260508055004 | 0 | 0.0 | 0.0 | 0.00 | 0.52 | 0.00 | 1010.8 | ||
| 20260508054611 | 47 | 295 | 0.0 | 0.0 | 0.00 | 0.52 | 0.00 | 73 | 1010.9 |
| 20260508053502 | 46 | 278 | 0.0 | 0.0 | 0.00 | 0.52 | 0.00 | 73 | 1010.9 |
| 20260508053001 | 46 | 278 | 0.0 | 0.0 | 0.00 | 0.52 | 0.00 | 73 | 1011.1 |
| 20260508052501 | 46 | 312 | 0.0 | 0.0 | 0.00 | 0.52 | 0.00 | 73 | 1011.1 |
| 20260508052001 | 45 | 271 | 0.0 | 0.0 | 0.00 | 0.52 | 0.00 | 72 | 1010.9 |
| 20260508051459 | 45 | 271 | 0.0 | 0.0 | 0.00 | 0.52 | 0.00 | 72 | 1010.8 |
| 20260508051006 | 46 | 292 | 0.0 | 0.0 | 0.00 | 0.52 | 0.00 | 65 | 1010.4 |
| 20260508050959 | 46 | 271 | 0.0 | 0.0 | 0.00 | 0.52 | 0.00 | 70 | 1010.6 |
| 20260508050500 | 46 | 271 | 0.0 | 0.0 | 0.00 | 0.52 | 0.00 | 69 | 1010.5 |
| 20260508045500 | 46 | 343 | 0.0 | 0.0 | 0.00 | 0.52 | 0.00 | 66 | 1010.2 |
| 20260508045000 | 46 | 343 | 0.0 | 0.0 | 0.00 | 0.52 | 0.00 | 66 | 1010.0 |
| 20260508044459 | 46 | 345 | 0.0 | 0.0 | 0.00 | 0.52 | 0.00 | 79 | 1010.2 |
| 20260508043958 | 45 | 337 | 0.0 | 0.0 | 0.00 | 0.52 | 0.00 | 79 | 1010.3 |
| 20260508043505 | 44 | 254 | 0.0 | 0.0 | 0.00 | 0.52 | 0.00 | 79 | 1010.2 |
| 20260508043501 | 0 | 0.0 | 0.0 | 0.00 | 0.52 | 0.00 | 1010.4 | ||
| 20260508042458 | 44 | 254 | 0.0 | 0.0 | 0.00 | 0.52 | 0.00 | 79 | 1010.2 |
| 20260508041957 | 44 | 302 | 0.0 | 0.0 | 0.00 | 0.52 | 0.00 | 79 | 1010.2 |
| 20260508041503 | 43 | 265 | 0.0 | 0.0 | 0.00 | 0.52 | 0.00 | 81 | 1010.1 |
| 20260508041457 | 44 | 265 | 0.0 | 0.0 | 0.00 | 0.52 | 0.00 | 81 | 1010.1 |
| 20260508041109 | 43 | 265 | 0.0 | 0.0 | 0.00 | 0.52 | 0.00 | 81 | 1010.3 |
| 20260508035956 | 43 | 265 | 0.0 | 0.0 | 0.00 | 0.52 | 0.00 | 80 | 1010.1 |
| 20260508035500 | 43 | 265 | 0.0 | 0.0 | 0.00 | 0.52 | 0.00 | 80 | 1010.2 |
| 20260508035456 | 43 | 265 | 0.0 | 0.0 | 0.00 | 0.52 | 0.00 | 80 | 1010.1 |
| 20260508034456 | 43 | 265 | 0.0 | 0.0 | 0.00 | 0.52 | 0.00 | 80 | 1010.2 |
| 20260508033955 | 43 | 265 | 0.0 | 0.0 | 0.00 | 0.52 | 0.00 | 80 | 1010.1 |
| 20260508033459 | 43 | 265 | 0.0 | 0.0 | 0.00 | 0.52 | 0.00 | 80 | 1010.3 |
| 20260508033455 | 43 | 265 | 0.0 | 0.0 | 0.00 | 0.52 | 0.00 | 80 | 1010.2 |
| 20260508032455 | 43 | 265 | 0.0 | 0.0 | 0.00 | 0.52 | 0.00 | 79 | 1010.2 |
| 20260508031953 | 43 | 265 | 0.0 | 0.0 | 0.00 | 0.52 | 0.00 | 79 | 1010.2 |
| 20260508031500 | 43 | 265 | 0.0 | 0.0 | 0.00 | 0.52 | 0.00 | 79 | 1010.3 |
| 20260508031453 | 43 | 265 | 0.0 | 0.0 | 0.00 | 0.52 | 0.00 | 79 | 1010.2 |
| 20260508030953 | 43 | 265 | 0.0 | 0.0 | 0.00 | 0.52 | 0.00 | 79 | 1010.2 |
| 20260508030610 | 43 | 265 | 0.0 | 0.0 | 0.00 | 0.52 | 0.00 | 79 | 1010.4 |
| 20260508030604 | 43 | 265 | 0.0 | 0.0 | 0.00 | 0.52 | 0.00 | 79 | 1010.4 |
| 20260508024954 | 43 | 265 | 0.0 | 0.0 | 0.00 | 0.52 | 0.00 | 78 | 1010.4 |
| 20260508024453 | 43 | 265 | 0.0 | 0.0 | 0.00 | 0.52 | 0.00 | 78 | 1010.4 |
| 20260508023953 | 42 | 265 | 0.0 | 0.0 | 0.00 | 0.52 | 0.00 | 78 | 1010.3 |
| 20260508023452 | 42 | 265 | 0.0 | 0.0 | 0.00 | 0.52 | 0.00 | 78 | 1010.4 |
| 20260508022957 | 42 | 265 | 0.0 | 0.0 | 0.00 | 0.52 | 0.00 | 78 | 1010.5 |
| 20260508022952 | 42 | 265 | 0.0 | 0.0 | 0.00 | 0.52 | 0.00 | 78 | 1010.5 |
| 20260508021952 | 42 | 265 | 0.0 | 0.0 | 0.00 | 0.52 | 0.00 | 77 | 1010.3 |
| 20260508021452 | 42 | 265 | 0.0 | 0.0 | 0.00 | 0.52 | 0.00 | 77 | 1010.4 |
| 20260508020952 | 42 | 265 | 0.0 | 0.0 | 0.00 | 0.52 | 0.00 | 77 | 1010.5 |
| 20260508020450 | 42 | 265 | 0.0 | 0.0 | 0.00 | 0.52 | 0.00 | 77 | 1010.5 |
| 20260508015955 | 43 | 265 | 0.0 | 0.0 | 0.00 | 0.52 | 0.00 | 77 | 1010.3 |
| 20260508015951 | 0 | 0.0 | 0.0 | 0.00 | 0.52 | 0.00 | 1010.4 | ||
| 20260508015557 | 43 | 265 | 0.0 | 0.0 | 0.00 | 0.52 | 0.00 | 77 | 1010.3 |
| 20260508015058 | 43 | 272 | 0.0 | 0.0 | 0.00 | 0.52 | 0.00 | 76 | 1010.2 |
| 20260508014448 | 43 | 265 | 0.0 | 0.0 | 0.00 | 0.52 | 0.00 | 76 | 1010.3 |
| 20260508013448 | 43 | 271 | 0.0 | 0.0 | 0.00 | 0.52 | 0.00 | 73 | 1010.1 |
| 20260508013001 | 44 | 307 | 0.0 | 0.0 | 0.00 | 0.52 | 0.00 | 73 | 1010.1 |
| 20260508012448 | 44 | 309 | 0.0 | 0.0 | 0.00 | 0.52 | 0.00 | 72 | 1010.1 |
| 20260508011947 | 44 | 312 | 0.0 | 0.0 | 0.00 | 0.52 | 0.00 | 64 | 1010.1 |
| 20260508011447 | 0 | 0.0 | 0.0 | 0.00 | 0.52 | 0.00 | 1010.2 | ||
| 20260508010950 | 47 | 338 | 0.0 | 0.0 | 0.00 | 0.52 | 0.00 | 64 | 1009.9 |
| 20260508010946 | 0 | 0.0 | 0.0 | 0.00 | 0.52 | 0.00 | 1010.1 | ||
| 20260508005946 | 47 | 338 | 0.0 | 0.0 | 0.00 | 0.52 | 0.00 | 64 | 1009.8 |
| 20260508005449 | 0 | 0.0 | 0.0 | 0.00 | 0.52 | 0.00 | 1009.7 | ||
| 20260508005445 | 47 | 343 | 0.0 | 0.0 | 0.00 | 0.52 | 0.00 | 63 | 1009.7 |
| 20260508004444 | 0 | 0.0 | 0.0 | 0.00 | 0.52 | 0.00 | 1009.6 | ||
| 20260508003942 | 0 | 0.0 | 0.0 | 0.00 | 0.52 | 0.00 | 1009.6 | ||
| 20260508003446 | 49 | 319 | 0.0 | 0.0 | 0.00 | 0.52 | 0.00 | 56 | 1009.4 |
| 20260508003442 | 49 | 319 | 0.0 | 0.0 | 0.00 | 0.52 | 0.00 | 56 | 1009.6 |
| 20260508002439 | 49 | 326 | 0.0 | 0.0 | 0.00 | 0.52 | 0.00 | 56 | 1009.3 |
| 20260508001940 | 50 | 316 | 0.0 | 0.0 | 0.00 | 0.52 | 0.00 | 54 | 1009.3 |
| 20260508001441 | 50 | 302 | 0.0 | 0.0 | 0.00 | 0.52 | 0.00 | 54 | 1009.3 |
| 20260508000939 | 50 | 302 | 0.0 | 0.0 | 0.00 | 0.52 | 0.00 | 54 | 1009.2 |
| 20260508000441 | 50 | 255 | 0.0 | 0.0 | 0.00 | 0.52 | 0.00 | 53 | 1009.0 |
| 20260507235939 | 50 | 255 | 0.0 | 0.0 | 0.00 | 0.52 | 0.00 | 53 | 1009.0 |
| 20260507235439 | 0 | 0.0 | 0.0 | 0.00 | 0.52 | 0.00 | 1009.0 | ||
| 20260507234942 | 52 | 265 | 0.0 | 0.0 | 0.00 | 0.52 | 0.00 | 48 | 1008.9 |
| 20260507234938 | 0 | 0.0 | 0.0 | 0.00 | 0.52 | 0.00 | 1008.9 | ||
| 20260507233937 | 52 | 265 | 0.0 | 0.0 | 0.00 | 0.52 | 0.00 | 48 | 1008.9 |
| 20260507233441 | 53 | 265 | 0.0 | 0.0 | 0.00 | 0.52 | 0.00 | 46 | 1008.9 |
| 20260507233437 | 53 | 265 | 0.0 | 0.0 | 0.00 | 0.52 | 0.00 | 48 | 1008.9 |
| 20260507233047 | 53 | 259 | 0.0 | 0.0 | 0.00 | 0.52 | 0.00 | 44 | 1008.9 |
| 20260507231936 | 54 | 226 | 0.0 | 0.0 | 0.00 | 0.52 | 0.00 | 44 | 1008.8 |
| 20260507231440 | 54 | 71 | 0.0 | 2.0 | 0.00 | 0.52 | 0.00 | 43 | 1008.6 |
| 20260507231434 | 54 | 344 | 0.0 | 2.0 | 0.00 | 0.52 | 0.00 | 44 | 1008.7 |
| 20260507230434 | 55 | 135 | 0.0 | 0.0 | 0.00 | 0.52 | 0.00 | 43 | 1008.7 |
| 20260507225935 | 55 | 41 | 0.0 | 0.0 | 0.00 | 0.52 | 0.00 | 43 | 1008.8 |
| 20260507225435 | 56 | 285 | 0.0 | 0.0 | 0.00 | 0.52 | 0.00 | 42 | 1008.8 |
| 20260507224934 | 56 | 285 | 0.0 | 0.0 | 0.00 | 0.52 | 0.00 | 42 | 1008.6 |
| 20260507224434 | 56 | 113 | 0.0 | 0.0 | 0.00 | 0.52 | 0.00 | 42 | 1008.5 |
| 20260507223939 | 56 | 99 | 0.0 | 0.0 | 0.00 | 0.52 | 0.00 | 44 | 1008.7 |
| 20260507223934 | 56 | 96 | 0.0 | 0.0 | 0.00 | 0.52 | 0.00 | 45 | 1008.6 |
| 20260507222933 | 56 | 148 | 0.0 | 0.0 | 0.00 | 0.52 | 0.00 | 40 | 1008.6 |
| 20260507222433 | 56 | 93 | 0.0 | 0.0 | 0.00 | 0.52 | 0.00 | 40 | 1008.6 |
| 20260507221934 | 56 | 106 | 0.0 | 2.0 | 0.00 | 0.52 | 0.00 | 40 | 1008.7 |
| 20260507221433 | 57 | 20 | 0.0 | 2.0 | 0.00 | 0.52 | 0.00 | 41 | 1008.7 |
| 20260507220933 | 57 | 320 | 0.0 | 0.0 | 0.00 | 0.52 | 0.00 | 41 | 1008.8 |
| 20260507220432 | 57 | 234 | 0.0 | 0.0 | 0.00 | 0.52 | 0.00 | 39 | 1008.7 |
| 20260507215933 | 57 | 227 | 0.0 | 0.0 | 0.00 | 0.52 | 0.00 | 39 | 1008.8 |
| 20260507215433 | 57 | 240 | 0.0 | 0.0 | 0.00 | 0.52 | 0.00 | 39 | 1008.8 |
| 20260507214935 | 56 | 28 | 0.0 | 0.0 | 0.00 | 0.52 | 0.00 | 39 | 1008.9 |
| 20260507214931 | 57 | 272 | 0.0 | 0.0 | 0.00 | 0.52 | 0.00 | 39 | 1008.8 |
| 20260507213932 | 56 | 0 | 0.0 | 0.0 | 0.00 | 0.52 | 0.00 | 42 | 1008.8 |
| 20260507213432 | 56 | 243 | 0.0 | 0.0 | 0.00 | 0.52 | 0.00 | 42 | 1008.9 |
| 20260507212930 | 56 | 275 | 0.0 | 0.0 | 0.00 | 0.52 | 0.00 | 40 | 1008.7 |
| 20260507212430 | 56 | 331 | 0.0 | 2.0 | 0.00 | 0.52 | 0.00 | 40 | 1008.8 |
| 20260507211932 | 57 | 289 | 0.0 | 2.0 | 0.00 | 0.52 | 0.00 | 39 | 1008.6 |
| 20260507211432 | 57 | 266 | 0.0 | 1.0 | 0.00 | 0.52 | 0.00 | 40 | 1008.5 |
| 20260507210931 | 56 | 334 | 0.0 | 1.0 | 0.00 | 0.52 | 0.00 | 42 | 1008.6 |
| 20260507210430 | 56 | 100 | 0.0 | 0.0 | 0.00 | 0.52 | 0.00 | 43 | 1008.6 |
| 20260507205931 | 56 | 182 | 0.0 | 2.0 | 0.00 | 0.52 | 0.00 | 40 | 1008.6 |
| 20260507205431 | 56 | 302 | 0.0 | 2.0 | 0.00 | 0.52 | 0.00 | 40 | 1008.6 |
| 20260507204930 | 56 | 324 | 0.0 | 2.0 | 0.00 | 0.52 | 0.00 | 41 | 1008.6 |
| 20260507204429 | 56 | 317 | 0.0 | 2.0 | 0.00 | 0.52 | 0.00 | 42 | 1008.6 |
| 20260507203930 | 56 | 251 | 0.0 | 0.0 | 0.00 | 0.52 | 0.00 | 39 | 1008.7 |
| 20260507203431 | 57 | 327 | 0.0 | 0.0 | 0.00 | 0.52 | 0.00 | 39 | 1008.6 |
| 20260507202929 | 57 | 298 | 0.0 | 1.0 | 0.00 | 0.52 | 0.00 | 42 | 1008.6 |
| 20260507202432 | 57 | 252 | 2.0 | 6.0 | 0.00 | 0.52 | 0.00 | 40 | 1008.6 |
| 20260507202428 | 56 | 258 | 0.0 | 6.0 | 0.00 | 0.52 | 0.00 | 40 | 1008.6 |
| 20260507201432 | 58 | 257 | 0.0 | 0.0 | 0.00 | 0.52 | 0.00 | 39 | 1008.6 |
| 20260507201428 | 57 | 298 | 0.0 | 2.0 | 0.00 | 0.52 | 0.00 | 39 | 1008.5 |
| 20260507200428 | 58 | 71 | 0.0 | 2.0 | 0.00 | 0.52 | 0.00 | 39 | 1008.7 |
| 20260507195929 | 58 | 192 | 0.0 | 2.0 | 0.00 | 0.52 | 0.00 | 40 | 1008.6 |
| 20260507195429 | 58 | 309 | 0.0 | 0.0 | 0.00 | 0.52 | 0.00 | 41 | 1008.7 |
| 20260507194928 | 58 | 330 | 0.0 | 4.0 | 0.00 | 0.52 | 0.00 | 41 | 1008.8 |
| 20260507194428 | 57 | 109 | 0.0 | 4.0 | 0.00 | 0.52 | 0.00 | 42 | 1008.9 |
| 20260507193933 | 57 | 123 | 0.0 | 3.0 | 0.00 | 0.52 | 0.00 | 40 | 1008.9 |
| 20260507193929 | 57 | 324 | 0.0 | 2.0 | 0.00 | 0.52 | 0.00 | 39 | 1008.9 |
| 20260507192928 | 58 | 24 | 0.0 | 3.0 | 0.00 | 0.52 | 0.00 | 41 | 1008.7 |
| 20260507192431 | 57 | 271 | 0.0 | 0.0 | 0.00 | 0.52 | 0.00 | 41 | 1008.9 |
| 20260507192427 | 58 | 343 | 0.0 | 2.0 | 0.00 | 0.52 | 0.00 | 41 | 1008.9 |
| 20260507191431 | 57 | 314 | 0.0 | 0.0 | 0.00 | 0.52 | 0.00 | 41 | 1009.3 |
| 20260507191427 | 56 | 238 | 0.0 | 0.0 | 0.00 | 0.52 | 0.00 | 41 | 1009.0 |
| 20260507191040 | 57 | 244 | 0.0 | 3.0 | 0.00 | 0.52 | 0.00 | 41 | 1009.2 |
| 20260507185926 | 58 | 334 | 0.0 | 6.0 | 0.00 | 0.52 | 0.00 | 39 | 1009.3 |
| 20260507185427 | 58 | 324 | 0.0 | 6.0 | 0.00 | 0.52 | 0.00 | 38 | 1009.4 |
| 20260507184927 | 59 | 279 | 0.0 | 5.0 | 0.00 | 0.52 | 0.00 | 42 | 1009.3 |
| 20260507184425 | 59 | 320 | 1.0 | 5.0 | 0.00 | 0.52 | 0.00 | 41 | 1009.3 |
| 20260507183925 | 59 | 278 | 0.0 | 5.0 | 0.00 | 0.52 | 0.00 | 43 | 1009.4 |
| 20260507183427 | 58 | 31 | 0.0 | 2.0 | 0.00 | 0.52 | 0.00 | 42 | 1009.3 |
| 20260507182925 | 58 | 90 | 0.0 | 0.0 | 0.00 | 0.52 | 0.00 | 42 | 1009.4 |
| 20260507182425 | 57 | 197 | 0.0 | 1.0 | 0.00 | 0.52 | 0.00 | 42 | 1009.5 |
| 20260507181925 | 57 | 259 | 0.0 | 1.0 | 0.00 | 0.52 | 0.00 | 42 | 1009.4 |
| 20260507181426 | 57 | 228 | 0.0 | 1.0 | 0.00 | 0.52 | 0.00 | 42 | 1009.5 |
| 20260507180925 | 57 | 251 | 0.0 | 1.0 | 0.00 | 0.52 | 0.00 | 42 | 1009.6 |
| 20260507180424 | 57 | 66 | 0.0 | 1.0 | 0.00 | 0.52 | 0.00 | 42 | 1009.7 |
| 20260507175924 | 58 | 329 | 0.0 | 0.0 | 0.00 | 0.52 | 0.00 | 42 | 1009.7 |
| 20260507175429 | 56 | 118 | 0.0 | 0.0 | 0.00 | 0.52 | 0.00 | 40 | 1009.9 |
| 20260507175424 | 58 | 97 | 0.0 | 0.0 | 0.00 | 0.52 | 0.00 | 45 | 1009.7 |
| 20260507174923 | 57 | 327 | 0.0 | 0.0 | 0.00 | 0.52 | 0.00 | 44 | 1009.8 |
| 20260507173923 | 57 | 63 | 0.0 | 5.0 | 0.00 | 0.52 | 0.00 | 42 | 1010.0 |
| 20260507173423 | 57 | 157 | 1.0 | 5.0 | 0.00 | 0.52 | 0.00 | 43 | 1010.0 |
| 20260507172923 | 57 | 113 | 0.0 | 4.0 | 0.00 | 0.52 | 0.00 | 43 | 1010.0 |
| 20260507172422 | 56 | 97 | 0.0 | 0.0 | 0.00 | 0.52 | 0.00 | 40 | 1009.9 |
| 20260507171924 | 56 | 13 | 0.0 | 0.0 | 0.00 | 0.52 | 0.00 | 45 | 1009.9 |
| 20260507171421 | 56 | 11 | 0.0 | 1.0 | 0.00 | 0.52 | 0.00 | 43 | 1010.0 |
| 20260507170922 | 56 | 338 | 0.0 | 1.0 | 0.00 | 0.52 | 0.00 | 43 | 1010.1 |
| 20260507170422 | 56 | 30 | 0.0 | 0.0 | 0.00 | 0.52 | 0.00 | 47 | 1010.1 |
| 20260507165922 | 56 | 82 | 0.0 | 0.0 | 0.00 | 0.52 | 0.00 | 41 | 1010.1 |
| 20260507165428 | 56 | 261 | 0.0 | 1.0 | 0.00 | 0.52 | 0.00 | 44 | 1010.0 |
| 20260507165422 | 57 | 343 | 0.0 | 0.0 | 0.00 | 0.52 | 0.00 | 43 | 1010.1 |
| 20260507164922 | 57 | 90 | 0.0 | 1.0 | 0.00 | 0.52 | 0.00 | 42 | 1010.1 |
| 20260507163922 | 56 | 221 | 0.0 | 0.0 | 0.00 | 0.52 | 0.00 | 48 | 1010.2 |
| 20260507163421 | 56 | 293 | 0.0 | 4.0 | 0.00 | 0.52 | 0.00 | 47 | 1010.4 |
| 20260507162921 | 55 | 261 | 1.0 | 4.0 | 0.00 | 0.52 | 0.00 | 45 | 1010.5 |
| 20260507162423 | 56 | 17 | 1.0 | 3.0 | 0.00 | 0.52 | 0.00 | 45 | 1010.4 |
| 20260507161925 | 55 | 37 | 0.0 | 0.0 | 0.00 | 0.52 | 0.00 | 47 | 1010.5 |
| 20260507161921 | 56 | 17 | 1.0 | 3.0 | 0.00 | 0.52 | 0.00 | 45 | 1010.4 |
| 20260507160920 | 55 | 348 | 0.0 | 0.0 | 0.00 | 0.52 | 0.00 | 50 | 1010.7 |
| 20260507160421 | 54 | 82 | 0.0 | 6.0 | 0.00 | 0.52 | 0.00 | 45 | 1010.7 |
| 20260507160418 | 54 | 69 | 0.0 | 6.0 | 0.00 | 0.52 | 0.00 | 45 | 1010.8 |